Mount Freedom, NJ (07970)

5:25 AM EST on February 08, 2016 (GMT -0500)
Mount Freedom, NJ | | Change Station
CLOSE
Current Station
Personal Weather Station
Location: Randolph, NJ
Elevation: 1007 ft
Nearby Weather Stations

Elev 1007 ft 40.83 °N, 74.58 °W | Updated 6 seconds ago

Mostly Cloudy
Mostly Cloudy
31.8 °F
Feels Like 32 °F
N
2.7
Wind Variable Wind from NNW
Gusts 6.8 mph

Today
High -- | Low -- °F
--% Chance of Precip.
Yesterday
High -- | Low -- °F
Precip. -- in
Pressure 29.77 in
Visibility 10.0 miles
Clouds Overcast 2800 ft
Windchill 32 °F
Dew Point 25 °F
Humidity 76%
Rainfall 0.00 in
Snow Depth Not available.
7:01 AM 5:23 PM
Waning Crescent, 0% visible
METAR KMMU 081015Z AUTO 04009KT 10SM OVC028 02/M04 A2977 RMK AO2
Pressure 29.77 in
Visibility 10.0 miles
Clouds Overcast 2800 ft
Windchill 32 °F
Dew Point 25 °F
Humidity 76%
Rainfall 0.00 in
Snow Depth Not available.
7:01 AM 5:23 PM
Waning Crescent, 0% visible
METAR KMMU 081015Z AUTO 04009KT 10SM OVC028 02/M04 A2977 RMK AO2

10-Day Weather Forecast

Almanac

Astronomy

Feb. 08, 2016 Rise Set
Actual Time
Civil Twilight
Nautical Twilight
Astronomical Twilight
Moon
Length of Visible Light
Length of Day
Tomorrow will be .
, % of the Moon is Illuminated

Today's Extremes

State Highs State Lows

Community

WunderPhotos

Upload Photos

1,891,420 photos uploaded!

WunderBlog® & News

Nearby

Air Quality

  Air Quality AQ Index Pollutant
Not available.

Snow Depth

Station Depth Elevation

Earthquake Activity

City Distance Mag. Time & Date
Minimum magnitude displayed is 2.5.

Coastal Water Temperatures

Place Temperature

Stations

Nearby Weather Stations

Station Location Temp. Windchill Dew Point Humidity Wind Precip. Elev Updated Type
                   

Watches & Warnings

There are currently no watches in effect.